Time;durP1;ratioP1;P1;durP2;ratioP2;P2;SDS_P1;SDS_P2;PMS_P1;PMS_P2;Temp;Humidity;BMP_temperature;BMP_pressure;BME280_temperature;BME280_humidity;BME280_pressure;Samples;Min_cycle;Max_cycle;Signal;HPM_P1;HPM_P2
2022/01/20 00:00:13;;;;;;;27.17;22.73;;;;;;;;;;5013938;28;20209;-82
2022/01/20 00:02:41;;;;;;;28.17;23.50;;;;;;;;;;5013680;28;20195;-82
2022/01/20 00:05:14;;;;;;;26.67;23.05;;;;;;;;;;5013923;28;20282;-82
2022/01/20 00:07:59;;;;;;;35.67;23.35;;;;;;;;;;5013485;28;20229;-82
2022/01/20 00:26:48;;;;;;;34.90;22.73;;;;;;;;;;5013472;28;20931;-83
2022/01/20 00:29:24;;;;;;;23.60;21.33;;;;;;;;;;5013526;28;20212;-83
2022/01/20 00:32:05;;;;;;;38.65;23.92;;;;;;;;;;5013352;28;20751;-82
2022/01/20 00:35:04;;;;;;;35.72;23.85;;;;;;;;;;5013637;28;20202;-82
2022/01/20 00:37:30;;;;;;;33.33;23.88;;;;;;;;;;5012950;28;20227;-82
2022/01/20 00:39:58;;;;;;;26.45;23.65;;;;;;;;;;5013298;28;20374;-82
2022/01/20 00:42:25;;;;;;;32.80;23.70;;;;;;;;;;5013449;28;20189;-83
2022/01/20 00:44:54;;;;;;;40.75;23.45;;;;;;;;;;5012849;28;20270;-82
2022/01/20 00:47:22;;;;;;;35.15;24.17;;;;;;;;;;4995677;28;20210;-81
2022/01/20 00:49:50;;;;;;;40.08;24.30;;;;;;;;;;5012920;28;20216;-82
2022/01/20 00:52:17;;;;;;;35.83;24.17;;;;;;;;;;4995728;28;20268;-82
2022/01/20 00:54:44;;;;;;;36.35;25.48;;;;;;;;;;5013180;28;20252;-83
2022/01/20 00:57:11;;;;;;;35.45;25.58;;;;;;;;;;5012860;28;20590;-83
2022/01/20 00:59:39;;;;;;;49.25;25.38;;;;;;;;;;5013237;28;20195;-82
2022/01/20 01:02:09;;;;;;;35.83;23.70;;;;;;;;;;5013406;28;20194;-83
2022/01/20 01:04:36;;;;;;;25.85;23.15;;;;;;;;;;5013107;28;20198;-82
2022/01/20 01:07:24;;;;;;;34.50;23.35;;;;;;;;;;5012980;28;20205;-82
2022/01/20 01:09:51;;;;;;;26.02;23.13;;;;;;;;;;5012990;28;20288;-82
2022/01/20 01:12:28;;;;;;;25.33;22.20;;;;;;;;;;5013182;28;20196;-83
2022/01/20 01:14:55;;;;;;;26.35;22.70;;;;;;;;;;5012669;28;20228;-82
2022/01/20 01:22:51;;;;;;;34.30;23.15;;;;;;;;;;5014045;28;20195;-83
2022/01/20 01:25:18;;;;;;;24.70;21.10;;;;;;;;;;5016598;28;20637;-83
2022/01/20 01:27:46;;;;;;;29.02;22.55;;;;;;;;;;5016571;28;20228;-82
2022/01/20 01:30:34;;;;;;;32.65;22.58;;;;;;;;;;5016474;28;20257;-83
2022/01/20 01:33:05;;;;;;;30.58;20.48;;;;;;;;;;5016878;28;20192;-82
2022/01/20 01:35:33;;;;;;;28.35;22.85;;;;;;;;;;5016403;28;20649;-82
2022/01/20 01:40:46;;;;;;;31.60;22.05;;;;;;;;;;5016411;28;20272;-83
2022/01/20 01:43:19;;;;;;;23.75;21.02;;;;;;;;;;5016506;28;20214;-82
2022/01/20 01:45:48;;;;;;;26.63;21.13;;;;;;;;;;5015947;28;20265;-82
2022/01/20 01:48:17;;;;;;;32.45;22.75;;;;;;;;;;5016124;28;20642;-83
2022/01/20 01:50:44;;;;;;;24.27;21.80;;;;;;;;;;5016361;28;20217;-83
2022/01/20 01:53:14;;;;;;;24.55;22.13;;;;;;;;;;5016131;28;20645;-82
2022/01/20 01:55:42;;;;;;;20.67;19.38;;;;;;;;;;5016165;28;20190;-82
2022/01/20 01:58:09;;;;;;;24.60;22.33;;;;;;;;;;5016246;28;20626;-82
2022/01/20 02:00:37;;;;;;;28.58;22.50;;;;;;;;;;5016064;28;20558;-83
2022/01/20 02:03:04;;;;;;;28.15;22.27;;;;;;;;;;5016030;28;20196;-83
2022/01/20 02:05:38;;;;;;;23.27;21.23;;;;;;;;;;5016268;28;20277;-82
2022/01/20 02:08:26;;;;;;;24.13;21.83;;;;;;;;;;5016086;28;20586;-83
2022/01/20 02:19:11;;;;;;;24.70;22.60;;;;;;;;;;5015534;28;20229;-82
2022/01/20 02:21:47;;;;;;;23.00;20.83;;;;;;;;;;5015584;28;20195;-82
2022/01/20 02:24:14;;;;;;;25.02;20.90;;;;;;;;;;5015666;28;20194;-83
2022/01/20 02:26:42;;;;;;;25.40;22.80;;;;;;;;;;5015734;28;20542;-82
2022/01/20 02:29:09;;;;;;;21.83;20.30;;;;;;;;;;5015030;28;20245;-83
2022/01/20 02:31:37;;;;;;;29.38;23.02;;;;;;;;;;5015706;28;20274;-83
2022/01/20 02:34:04;;;;;;;25.02;22.08;;;;;;;;;;5015374;28;20651;-82
2022/01/20 02:36:34;;;;;;;26.08;22.02;;;;;;;;;;5015618;28;20209;-81
2022/01/20 02:39:09;;;;;;;25.70;22.00;;;;;;;;;;5015581;28;20250;-82
2022/01/20 02:47:12;;;;;;;25.00;21.30;;;;;;;;;;5015193;28;20199;-82
2022/01/20 02:49:39;;;;;;;30.90;23.35;;;;;;;;;;5014846;28;20227;-82
2022/01/20 02:52:07;;;;;;;21.42;19.65;;;;;;;;;;5015072;28;20603;-83
2022/01/20 02:54:36;;;;;;;21.20;19.52;;;;;;;;;;5015054;28;20657;-82
2022/01/20 02:57:04;;;;;;;20.85;19.15;;;;;;;;;;4998106;28;20195;-82
2022/01/20 02:59:32;;;;;;;25.40;21.48;;;;;;;;;;5014763;28;20237;-82
2022/01/20 03:01:59;;;;;;;22.23;20.08;;;;;;;;;;5014792;28;20641;-81
2022/01/20 03:04:27;;;;;;;21.98;20.13;;;;;;;;;;5014726;28;20196;-83
2022/01/20 03:06:54;;;;;;;23.10;20.60;;;;;;;;;;5015020;28;20206;-82
2022/01/20 03:09:21;;;;;;;24.25;20.48;;;;;;;;;;5015003;28;20615;-81
2022/01/20 03:11:50;;;;;;;23.92;20.05;;;;;;;;;;5014762;28;20196;-82
2022/01/20 03:14:18;;;;;;;20.75;19.25;;;;;;;;;;5014847;28;20187;-83
2022/01/20 03:16:45;;;;;;;22.05;20.00;;;;;;;;;;5014742;28;20256;-83
2022/01/20 03:19:13;;;;;;;19.33;17.83;;;;;;;;;;5014412;28;20235;-82
2022/01/20 03:21:40;;;;;;;22.40;20.27;;;;;;;;;;5014776;28;20197;-81
2022/01/20 03:24:08;;;;;;;22.23;20.13;;;;;;;;;;5014592;28;20206;-83
2022/01/20 03:26:35;;;;;;;20.52;18.73;;;;;;;;;;5014457;28;20200;-83
2022/01/20 03:29:04;;;;;;;20.38;18.77;;;;;;;;;;5014349;28;20203;-82
2022/01/20 03:31:32;;;;;;;21.33;19.38;;;;;;;;;;5014335;28;20202;-82
2022/01/20 03:34:00;;;;;;;21.35;19.25;;;;;;;;;;5014266;28;20199;-82
2022/01/20 03:36:27;;;;;;;20.92;19.33;;;;;;;;;;5014137;28;20207;-83
2022/01/20 03:38:54;;;;;;;21.02;18.95;;;;;;;;;;5014034;28;20232;-82
2022/01/20 03:41:22;;;;;;;19.90;17.92;;;;;;;;;;5013603;28;20202;-82
2022/01/20 03:43:49;;;;;;;19.73;18.55;;;;;;;;;;5014117;28;20274;-82
2022/01/20 03:46:18;;;;;;;20.52;18.63;;;;;;;;;;5014149;28;20262;-82
2022/01/20 03:48:51;;;;;;;22.58;20.38;;;;;;;;;;4996487;28;20272;-82
2022/01/20 03:51:21;;;;;;;21.17;19.52;;;;;;;;;;5013915;28;20222;-83
2022/01/20 03:53:49;;;;;;;21.05;19.25;;;;;;;;;;5013852;28;20212;-82
2022/01/20 03:56:16;;;;;;;22.50;20.25;;;;;;;;;;5014239;28;20247;-82
2022/01/20 03:58:43;;;;;;;22.63;20.52;;;;;;;;;;5014102;28;20283;-83
2022/01/20 04:01:11;;;;;;;21.25;19.83;;;;;;;;;;5014196;28;20594;-83
2022/01/20 04:03:40;;;;;;;20.70;19.02;;;;;;;;;;5013790;28;20196;-82
2022/01/20 04:06:07;;;;;;;21.77;20.08;;;;;;;;;;5013691;28;20664;-82
2022/01/20 04:08:35;;;;;;;19.48;18.30;;;;;;;;;;5013964;28;20211;-82
2022/01/20 04:11:03;;;;;;;23.30;21.23;;;;;;;;;;5013509;28;20729;-82
2022/01/20 04:13:32;;;;;;;22.50;20.10;;;;;;;;;;5013684;28;20607;-82
2022/01/20 04:16:00;;;;;;;23.02;20.17;;;;;;;;;;5013342;28;20665;-82
2022/01/20 04:18:28;;;;;;;21.85;19.85;;;;;;;;;;5013777;28;20339;-82
2022/01/20 04:20:57;;;;;;;21.83;20.02;;;;;;;;;;5013585;28;20197;-82
2022/01/20 04:23:24;;;;;;;22.92;20.08;;;;;;;;;;5013739;28;20202;-82
2022/01/20 04:25:51;;;;;;;22.15;19.83;;;;;;;;;;5013538;28;20191;-82
2022/01/20 04:28:19;;;;;;;22.38;20.00;;;;;;;;;;5013653;28;20207;-82
2022/01/20 04:30:46;;;;;;;21.15;19.63;;;;;;;;;;5013538;28;20200;-82
2022/01/20 04:33:13;;;;;;;21.35;19.35;;;;;;;;;;5013792;28;20201;-82
2022/01/20 04:35:41;;;;;;;21.95;19.85;;;;;;;;;;5013786;28;20211;-83
2022/01/20 04:38:09;;;;;;;22.40;20.05;;;;;;;;;;5013275;28;20245;-83
2022/01/20 04:40:41;;;;;;;22.10;20.30;;;;;;;;;;5013395;28;20199;-83
2022/01/20 04:43:08;;;;;;;25.23;21.13;;;;;;;;;;5013451;28;20211;-82
2022/01/20 04:45:41;;;;;;;23.45;21.42;;;;;;;;;;5012947;28;20226;-82
2022/01/20 04:48:25;;;;;;;22.83;20.55;;;;;;;;;;5013526;28;20233;-83
2022/01/20 04:59:09;;;;;;;20.48;19.35;;;;;;;;;;5017475;28;20581;-82
2022/01/20 05:01:43;;;;;;;22.23;20.80;;;;;;;;;;5017309;28;20203;-82
2022/01/20 05:04:11;;;;;;;21.00;19.73;;;;;;;;;;5016995;28;20201;-82
2022/01/20 05:06:41;;;;;;;22.75;20.90;;;;;;;;;;5017430;28;20198;-82
2022/01/20 05:09:10;;;;;;;23.25;21.60;;;;;;;;;;5017158;28;20191;-82
2022/01/20 05:11:44;;;;;;;32.08;30.02;;;;;;;;;;5016973;28;20649;-82
2022/01/20 05:14:11;;;;;;;31.40;29.90;;;;;;;;;;5017422;28;20301;-83
2022/01/20 05:16:38;;;;;;;37.42;35.30;;;;;;;;;;4999509;28;20575;-82
2022/01/20 05:19:06;;;;;;;30.33;28.38;;;;;;;;;;5016899;28;20222;-82
2022/01/20 05:21:33;;;;;;;34.63;32.33;;;;;;;;;;5017322;28;20617;-81
2022/01/20 05:24:01;;;;;;;32.55;29.85;;;;;;;;;;5016802;28;20226;-82
2022/01/20 05:26:30;;;;;;;31.85;29.95;;;;;;;;;;5016578;28;20212;-82
2022/01/20 05:28:57;;;;;;;35.40;32.45;;;;;;;;;;5016664;28;20263;-82
2022/01/20 05:31:24;;;;;;;34.10;31.77;;;;;;;;;;5016759;28;20204;-82
2022/01/20 05:33:52;;;;;;;33.60;31.13;;;;;;;;;;5016847;28;20564;-83
2022/01/20 05:36:19;;;;;;;34.20;30.92;;;;;;;;;;5016720;28;20203;-82
2022/01/20 05:38:46;;;;;;;33.38;30.58;;;;;;;;;;5016701;28;20221;-81
2022/01/20 05:41:14;;;;;;;36.30;33.28;;;;;;;;;;5016270;28;20193;-83
2022/01/20 05:43:43;;;;;;;31.85;29.20;;;;;;;;;;5016321;28;20217;-82
2022/01/20 05:46:11;;;;;;;32.53;30.17;;;;;;;;;;5016240;28;20190;-82
2022/01/20 05:48:45;;;;;;;31.95;29.80;;;;;;;;;;5016387;28;20201;-82
2022/01/20 05:51:13;;;;;;;30.80;28.48;;;;;;;;;;5016399;28;20281;-82
2022/01/20 05:53:40;;;;;;;33.67;31.10;;;;;;;;;;4998998;28;20611;-82
2022/01/20 05:56:08;;;;;;;32.75;30.10;;;;;;;;;;4998825;28;20569;-83
2022/01/20 05:58:37;;;;;;;29.50;27.67;;;;;;;;;;5016291;28;20223;-82
2022/01/20 06:01:06;;;;;;;32.58;29.88;;;;;;;;;;5016286;28;20237;-82
2022/01/20 06:03:40;;;;;;;30.75;28.08;;;;;;;;;;5015395;28;20194;-82
2022/01/20 06:06:08;;;;;;;33.00;30.25;;;;;;;;;;5015759;28;20198;-82
2022/01/20 06:08:36;;;;;;;31.90;29.80;;;;;;;;;;5016150;28;20207;-82
2022/01/20 06:11:03;;;;;;;31.85;29.85;;;;;;;;;;5015677;28;20750;-82
2022/01/20 06:13:30;;;;;;;33.13;29.50;;;;;;;;;;5016168;28;20210;-83
2022/01/20 06:15:59;;;;;;;30.27;28.25;;;;;;;;;;5015916;28;20249;-83
2022/01/20 06:18:28;;;;;;;31.83;29.27;;;;;;;;;;5015826;28;20202;-82
2022/01/20 06:20:56;;;;;;;27.35;25.35;;;;;;;;;;5015778;28;20269;-82
2022/01/20 06:23:23;;;;;;;32.10;29.80;;;;;;;;;;5016032;28;20210;-82
2022/01/20 06:25:51;;;;;;;30.85;28.63;;;;;;;;;;5015803;28;20194;-82
2022/01/20 06:28:18;;;;;;;30.33;28.40;;;;;;;;;;5015649;28;20206;-83
2022/01/20 06:30:46;;;;;;;30.35;28.25;;;;;;;;;;5015336;28;20268;-82
2022/01/20 06:33:13;;;;;;;31.92;29.40;;;;;;;;;;5015616;28;20202;-83
2022/01/20 06:35:42;;;;;;;33.10;30.63;;;;;;;;;;5015561;28;20201;-82
2022/01/20 06:38:11;;;;;;;35.63;32.63;;;;;;;;;;5015628;28;20190;-81
2022/01/20 06:40:39;;;;;;;34.50;31.95;;;;;;;;;;5015682;28;20214;-82
2022/01/20 06:43:07;;;;;;;33.40;30.63;;;;;;;;;;5015217;28;20277;-82
2022/01/20 06:45:34;;;;;;;33.88;30.67;;;;;;;;;;5015120;28;20695;-82
2022/01/20 06:48:01;;;;;;;33.83;30.67;;;;;;;;;;5015171;28;20191;-82
2022/01/20 06:50:29;;;;;;;32.22;29.38;;;;;;;;;;4998368;28;20202;-82
2022/01/20 06:52:58;;;;;;;32.28;30.17;;;;;;;;;;5015163;28;20194;-82
2022/01/20 06:55:25;;;;;;;34.35;31.60;;;;;;;;;;5015151;28;20198;-82
2022/01/20 06:57:52;;;;;;;36.83;34.13;;;;;;;;;;5015049;28;20206;-82
2022/01/20 07:00:21;;;;;;;36.83;34.00;;;;;;;;;;5014833;28;20353;-83
2022/01/20 07:02:49;;;;;;;38.30;35.00;;;;;;;;;;4997313;28;20260;-82
2022/01/20 07:05:19;;;;;;;38.33;35.55;;;;;;;;;;5015127;28;20201;-83
2022/01/20 07:07:46;;;;;;;37.60;35.08;;;;;;;;;;5014753;28;20206;-82
2022/01/20 07:10:17;;;;;;;37.40;34.40;;;;;;;;;;5014583;28;20568;-82
2022/01/20 07:12:44;;;;;;;37.85;34.78;;;;;;;;;;5014491;28;20637;-83
2022/01/20 07:15:12;;;;;;;39.55;36.80;;;;;;;;;;5014558;28;20193;-82
2022/01/20 07:17:39;;;;;;;36.53;34.17;;;;;;;;;;5014303;28;20718;-82
2022/01/20 07:20:07;;;;;;;35.47;33.13;;;;;;;;;;5014665;28;20284;-83
2022/01/20 07:22:35;;;;;;;36.28;33.53;;;;;;;;;;5014765;28;20643;-81
2022/01/20 07:25:02;;;;;;;33.55;31.45;;;;;;;;;;5014367;28;20198;-81
2022/01/20 07:27:31;;;;;;;33.63;30.67;;;;;;;;;;5014306;28;20191;-82
2022/01/20 07:29:58;;;;;;;31.13;28.58;;;;;;;;;;5014740;28;20193;-83
2022/01/20 07:32:26;;;;;;;28.13;26.38;;;;;;;;;;5014571;28;20198;-83
2022/01/20 07:34:53;;;;;;;27.38;25.70;;;;;;;;;;5014374;28;20197;-82
2022/01/20 07:37:20;;;;;;;28.60;26.25;;;;;;;;;;5014166;28;20197;-82
2022/01/20 07:39:48;;;;;;;27.70;25.85;;;;;;;;;;4996836;28;20275;-83
2022/01/20 07:42:15;;;;;;;27.17;25.23;;;;;;;;;;5014550;28;20190;-83
2022/01/20 07:44:44;;;;;;;25.92;24.05;;;;;;;;;;5014342;28;20235;-82
2022/01/20 07:47:12;;;;;;;26.42;24.27;;;;;;;;;;5014468;28;20245;-84
2022/01/20 07:49:39;;;;;;;25.77;23.17;;;;;;;;;;5014822;28;20198;-84
2022/01/20 07:52:07;;;;;;;26.70;24.60;;;;;;;;;;5014726;28;20213;-83
2022/01/20 07:54:34;;;;;;;24.27;22.10;;;;;;;;;;5014445;28;20208;-83
2022/01/20 07:57:02;;;;;;;24.25;22.25;;;;;;;;;;5014209;28;20233;-82
2022/01/20 07:59:29;;;;;;;27.05;24.90;;;;;;;;;;5014217;28;20623;-83
2022/01/20 08:01:58;;;;;;;23.60;21.30;;;;;;;;;;5014389;28;20207;-83
2022/01/20 08:04:25;;;;;;;24.52;22.65;;;;;;;;;;5014129;28;20670;-83
2022/01/20 08:06:53;;;;;;;24.00;22.00;;;;;;;;;;5014065;28;20185;-82
2022/01/20 08:09:22;;;;;;;25.75;23.00;;;;;;;;;;5013768;28;20230;-83
2022/01/20 08:11:50;;;;;;;23.77;22.15;;;;;;;;;;5013725;28;20636;-82
2022/01/20 08:14:17;;;;;;;27.27;23.48;;;;;;;;;;5014059;28;20213;-83
2022/01/20 08:16:44;;;;;;;24.13;22.60;;;;;;;;;;5013641;28;20614;-83
2022/01/20 08:19:13;;;;;;;26.73;24.30;;;;;;;;;;4996721;28;20622;-83
2022/01/20 08:21:40;;;;;;;24.23;22.63;;;;;;;;;;5013804;28;20591;-84
2022/01/20 08:24:08;;;;;;;24.13;22.23;;;;;;;;;;5013801;28;20193;-83
2022/01/20 08:26:35;;;;;;;24.70;22.73;;;;;;;;;;5013453;28;20189;-83
2022/01/20 08:29:02;;;;;;;25.60;23.40;;;;;;;;;;5013719;28;20197;-82
2022/01/20 08:31:31;;;;;;;25.10;23.08;;;;;;;;;;5013958;28;20193;-82
2022/01/20 08:33:58;;;;;;;24.83;22.83;;;;;;;;;;5013632;28;20202;-84
2022/01/20 08:36:27;;;;;;;24.27;22.58;;;;;;;;;;5013786;28;20633;-83
2022/01/20 08:38:54;;;;;;;27.05;24.30;;;;;;;;;;5013519;28;20260;-84
2022/01/20 08:41:21;;;;;;;25.55;23.08;;;;;;;;;;5013729;28;20228;-84
2022/01/20 08:43:49;;;;;;;26.38;24.15;;;;;;;;;;5013624;28;20202;-84
2022/01/20 08:46:20;;;;;;;25.02;23.58;;;;;;;;;;5013423;28;20256;-84
2022/01/20 08:48:47;;;;;;;22.67;21.23;;;;;;;;;;5013543;28;20276;-82
2022/01/20 08:51:14;;;;;;;26.75;24.05;;;;;;;;;;5013394;28;20201;-82
2022/01/20 08:53:43;;;;;;;24.75;23.10;;;;;;;;;;5013664;28;20239;-84
2022/01/20 08:56:11;;;;;;;25.55;23.25;;;;;;;;;;5013410;28;20635;-88
2022/01/20 08:58:39;;;;;;;22.98;21.38;;;;;;;;;;4997011;28;20211;-82
2022/01/20 09:01:06;;;;;;;23.95;21.58;;;;;;;;;;4993446;28;20242;-82
2022/01/20 09:03:33;;;;;;;24.52;22.75;;;;;;;;;;4993210;28;20198;-82
2022/01/20 09:06:02;;;;;;;23.77;21.80;;;;;;;;;;4993445;28;20249;-82
2022/01/20 09:08:29;;;;;;;24.27;22.15;;;;;;;;;;4993047;28;20582;-82
2022/01/20 09:10:58;;;;;;;22.63;20.75;;;;;;;;;;4993383;28;20214;-81
2022/01/20 09:16:10;;;;;;;24.17;21.05;;;;;;;;;;4992916;28;20250;-80
2022/01/20 09:18:38;;;;;;;23.60;21.50;;;;;;;;;;4994135;28;20641;-88
2022/01/20 09:21:05;;;;;;;21.50;19.83;;;;;;;;;;4995103;28;20215;-86
2022/01/20 09:23:33;;;;;;;22.00;20.13;;;;;;;;;;4994203;28;20195;-87
2022/01/20 09:26:01;;;;;;;23.05;20.90;;;;;;;;;;4994552;28;20202;-88
2022/01/20 09:28:29;;;;;;;23.00;20.95;;;;;;;;;;4994069;28;20218;-88
2022/01/20 09:31:00;;;;;;;22.70;20.60;;;;;;;;;;4994197;28;20227;-86
2022/01/20 09:33:28;;;;;;;22.13;20.20;;;;;;;;;;4994025;28;20215;-86
2022/01/20 09:35:56;;;;;;;23.52;21.08;;;;;;;;;;4993387;28;20206;-83
2022/01/20 09:38:24;;;;;;;25.52;22.33;;;;;;;;;;4993540;28;20650;-82
2022/01/20 09:40:51;;;;;;;21.80;19.70;;;;;;;;;;4996422;28;20230;-81
2022/01/20 09:43:20;;;;;;;22.50;20.55;;;;;;;;;;4996348;28;20543;-80
2022/01/20 09:45:50;;;;;;;21.85;19.70;;;;;;;;;;4996836;28;20237;-84
2022/01/20 09:48:18;;;;;;;21.75;20.13;;;;;;;;;;4997709;28;20195;-84
2022/01/20 09:50:46;;;;;;;23.50;21.17;;;;;;;;;;4997275;28;20209;-86
2022/01/20 09:53:14;;;;;;;25.85;23.08;;;;;;;;;;4997449;28;20194;-86
2022/01/20 09:55:41;;;;;;;19.85;18.65;;;;;;;;;;4997658;28;20211;-88
2022/01/20 09:58:09;;;;;;;21.48;19.90;;;;;;;;;;5009364;28;20214;-87
2022/01/20 10:00:38;;;;;;;20.75;19.25;;;;;;;;;;4999525;28;20297;-86
2022/01/20 10:03:08;;;;;;;22.73;20.65;;;;;;;;;;5017083;28;20619;-86
2022/01/20 10:05:37;;;;;;;23.08;20.80;;;;;;;;;;5017172;28;20204;-86
2022/01/20 10:08:05;;;;;;;25.40;23.00;;;;;;;;;;5017251;28;20225;-86
2022/01/20 10:10:43;;;;;;;22.67;20.90;;;;;;;;;;5001026;28;20201;-85
2022/01/20 10:13:11;;;;;;;23.05;21.42;;;;;;;;;;5017580;28;20649;-87
2022/01/20 10:15:41;;;;;;;25.00;21.20;;;;;;;;;;5017012;28;20374;-92
2022/01/20 10:18:10;;;;;;;23.58;20.50;;;;;;;;;;5017381;28;20234;-85
2022/01/20 10:20:37;;;;;;;22.13;20.20;;;;;;;;;;5015193;28;20248;-84
2022/01/20 10:23:05;;;;;;;22.70;20.75;;;;;;;;;;5016234;28;20187;-84
2022/01/20 10:25:35;;;;;;;26.15;20.83;;;;;;;;;;5016174;28;20714;-83
2022/01/20 10:28:02;;;;;;;22.48;20.30;;;;;;;;;;5016447;28;20636;-85
2022/01/20 10:30:31;;;;;;;29.75;20.85;;;;;;;;;;5015643;28;20194;-85
2022/01/20 10:33:01;;;;;;;21.60;19.95;;;;;;;;;;5016166;28;20237;-83
2022/01/20 10:35:32;;;;;;;21.83;19.75;;;;;;;;;;5015815;28;20198;-86
2022/01/20 10:38:01;;;;;;;22.67;20.85;;;;;;;;;;5016608;28;20193;-85
2022/01/20 10:40:28;;;;;;;24.48;22.65;;;;;;;;;;4998801;28;20226;-85
2022/01/20 10:42:56;;;;;;;23.08;21.02;;;;;;;;;;5016269;28;20214;-85
2022/01/20 10:45:24;;;;;;;21.83;20.10;;;;;;;;;;5015486;28;20634;-82
2022/01/20 10:47:52;;;;;;;21.50;19.50;;;;;;;;;;5016626;28;20997;-82
2022/01/20 10:50:23;;;;;;;20.17;18.92;;;;;;;;;;5014614;28;20196;-82
2022/01/20 10:52:52;;;;;;;22.10;20.88;;;;;;;;;;5015772;28;20632;-82
2022/01/20 10:55:24;;;;;;;20.77;19.23;;;;;;;;;;5014820;28;20711;-82
2022/01/20 10:57:52;;;;;;;19.63;18.42;;;;;;;;;;5005483;28;20211;-81
2022/01/20 11:00:21;;;;;;;22.88;20.88;;;;;;;;;;4994976;28;20244;-81
2022/01/20 11:02:53;;;;;;;22.77;20.65;;;;;;;;;;4995065;28;20666;-82
2022/01/20 11:05:22;;;;;;;21.08;19.67;;;;;;;;;;4996083;28;20214;-86
2022/01/20 11:07:51;;;;;;;23.88;20.17;;;;;;;;;;4994948;28;20230;-81
2022/01/20 11:10:19;;;;;;;24.30;21.80;;;;;;;;;;4994771;28;20211;-80
2022/01/20 11:12:46;;;;;;;22.50;20.60;;;;;;;;;;4994747;28;20198;-80
2022/01/20 11:15:15;;;;;;;22.25;20.42;;;;;;;;;;4994932;28;20227;-81
2022/01/20 11:17:43;;;;;;;19.85;18.45;;;;;;;;;;4994314;28;20250;-81
2022/01/20 11:20:12;;;;;;;21.15;19.60;;;;;;;;;;4994563;28;20199;-81
2022/01/20 11:22:51;;;;;;;21.33;19.70;;;;;;;;;;4994164;28;20191;-81
2022/01/20 11:25:20;;;;;;;21.00;19.73;;;;;;;;;;4994663;28;20266;-80
2022/01/20 11:27:47;;;;;;;21.65;19.80;;;;;;;;;;5003104;28;20707;-82
2022/01/20 11:30:18;;;;;;;21.73;20.23;;;;;;;;;;5014185;28;20201;-82
2022/01/20 11:32:57;;;;;;;24.02;21.25;;;;;;;;;;5014325;28;20206;-82
2022/01/20 11:35:36;;;;;;;22.08;20.00;;;;;;;;;;5014511;28;20187;-83
2022/01/20 11:38:05;;;;;;;21.50;19.83;;;;;;;;;;5014128;28;20635;-82
2022/01/20 11:40:32;;;;;;;20.92;19.52;;;;;;;;;;5014373;28;20223;-83
2022/01/20 11:43:03;;;;;;;21.48;19.67;;;;;;;;;;5014564;28;20232;-82
2022/01/20 11:45:33;;;;;;;20.75;18.83;;;;;;;;;;5013620;28;20252;-83
2022/01/20 11:48:00;;;;;;;20.80;19.45;;;;;;;;;;5014259;28;20264;-82
2022/01/20 11:50:28;;;;;;;21.80;19.70;;;;;;;;;;5013794;28;20254;-82
2022/01/20 11:52:55;;;;;;;22.88;20.77;;;;;;;;;;5014005;28;20190;-82
2022/01/20 11:55:24;;;;;;;23.85;21.30;;;;;;;;;;5014132;28;20221;-81
2022/01/20 11:57:51;;;;;;;23.20;21.15;;;;;;;;;;5004262;28;20208;-82
2022/01/20 12:00:23;;;;;;;20.15;18.95;;;;;;;;;;4994514;28;20671;-82
2022/01/20 12:02:51;;;;;;;20.17;18.90;;;;;;;;;;4992212;28;20193;-82
2022/01/20 12:05:20;;;;;;;23.50;21.20;;;;;;;;;;4994317;28;20199;-82
2022/01/20 12:07:47;;;;;;;21.40;20.05;;;;;;;;;;4994189;28;20207;-83
2022/01/20 12:10:15;;;;;;;23.02;21.10;;;;;;;;;;4993959;28;20200;-82
2022/01/20 12:12:44;;;;;;;21.60;20.20;;;;;;;;;;4993927;28;20194;-82
2022/01/20 12:15:14;;;;;;;22.27;20.65;;;;;;;;;;4993830;28;20214;-82
2022/01/20 12:17:42;;;;;;;22.70;20.58;;;;;;;;;;4993603;28;20231;-82
2022/01/20 12:20:12;;;;;;;22.70;20.90;;;;;;;;;;4993752;28;20631;-82
2022/01/20 12:22:42;;;;;;;22.95;20.85;;;;;;;;;;4993611;28;20664;-82
2022/01/20 12:25:15;;;;;;;22.85;20.48;;;;;;;;;;4993247;28;20211;-81
2022/01/20 12:27:45;;;;;;;21.58;19.92;;;;;;;;;;5001729;28;20668;-81
2022/01/20 12:30:20;;;;;;;22.33;20.42;;;;;;;;;;5013261;28;20273;-80
2022/01/20 12:32:56;;;;;;;21.00;19.00;;;;;;;;;;5012896;28;20192;-80
2022/01/20 12:35:23;;;;;;;22.70;20.80;;;;;;;;;;5013097;28;20278;-81
2022/01/20 12:37:51;;;;;;;22.70;20.45;;;;;;;;;;5012836;28;20557;-81
2022/01/20 12:40:20;;;;;;;22.33;20.50;;;;;;;;;;5013069;28;20199;-81
2022/01/20 12:42:49;;;;;;;22.88;21.17;;;;;;;;;;5012837;28;20198;-81
2022/01/20 12:48:13;;;;;;;21.52;20.13;;;;;;;;;;5012892;28;20635;-80
2022/01/20 12:50:50;;;;;;;22.17;20.35;;;;;;;;;;5013107;28;20222;-81
2022/01/20 12:53:18;;;;;;;22.83;21.08;;;;;;;;;;5013113;28;20628;-80
2022/01/20 12:55:51;;;;;;;20.90;19.35;;;;;;;;;;5013077;28;20192;-80
2022/01/20 12:58:20;;;;;;;21.75;20.00;;;;;;;;;;4999501;28;20627;-81
2022/01/20 13:00:58;;;;;;;21.17;19.60;;;;;;;;;;4993042;28;20239;-81
2022/01/20 13:03:34;;;;;;;21.83;20.13;;;;;;;;;;4993122;28;20731;-80
2022/01/20 13:06:01;;;;;;;21.48;19.77;;;;;;;;;;4993153;28;20223;-82
2022/01/20 13:08:32;;;;;;;21.88;20.38;;;;;;;;;;4992998;28;20196;-81
2022/01/20 13:11:03;;;;;;;21.40;20.00;;;;;;;;;;4993111;28;20645;-80
2022/01/20 13:13:32;;;;;;;22.17;20.08;;;;;;;;;;4994017;28;20203;-80
2022/01/20 13:15:59;;;;;;;22.50;20.60;;;;;;;;;;4996751;28;20215;-82
2022/01/20 13:18:26;;;;;;;22.65;20.33;;;;;;;;;;4997047;28;20200;-88
2022/01/20 13:20:58;;;;;;;24.23;20.63;;;;;;;;;;4997194;28;20222;-82
2022/01/20 13:26:11;;;;;;;21.77;19.98;;;;;;;;;;4996793;28;20210;-84
2022/01/20 13:28:39;;;;;;;23.50;21.80;;;;;;;;;;5012518;28;20653;-82
2022/01/20 13:31:16;;;;;;;23.63;21.30;;;;;;;;;;5016028;28;20204;-83
2022/01/20 13:33:44;;;;;;;21.25;19.95;;;;;;;;;;5016503;28;20231;-91
2022/01/20 13:36:11;;;;;;;22.77;21.20;;;;;;;;;;5015983;28;20191;-80
2022/01/20 13:38:45;;;;;;;21.75;20.10;;;;;;;;;;5016158;28;20575;-81
2022/01/20 13:41:13;;;;;;;22.67;20.75;;;;;;;;;;5016204;28;20260;-78
2022/01/20 13:46:33;;;;;;;21.80;20.17;;;;;;;;;;5015811;28;20652;-78
2022/01/20 13:49:08;;;;;;;21.90;20.40;;;;;;;;;;5015774;28;20604;-80
2022/01/20 13:51:35;;;;;;;23.30;21.20;;;;;;;;;;5015830;28;20193;-81
2022/01/20 13:54:02;;;;;;;23.20;21.75;;;;;;;;;;5015467;28;20663;-81
2022/01/20 13:56:30;;;;;;;24.00;22.30;;;;;;;;;;5015612;28;20698;-82
2022/01/20 13:59:07;;;;;;;25.48;23.40;;;;;;;;;;4998256;28;20558;-81
2022/01/20 14:01:34;;;;;;;24.38;22.98;;;;;;;;;;5015657;28;20256;-80
2022/01/20 14:04:01;;;;;;;24.58;22.42;;;;;;;;;;5015547;28;20226;-80
2022/01/20 14:06:29;;;;;;;29.45;27.02;;;;;;;;;;5015657;28;20202;-80
2022/01/20 14:08:56;;;;;;;27.55;25.75;;;;;;;;;;5015407;28;20550;-79
2022/01/20 14:11:24;;;;;;;30.00;27.48;;;;;;;;;;5015767;28;20198;-79
2022/01/20 14:13:51;;;;;;;28.30;26.35;;;;;;;;;;5015615;28;20193;-80
2022/01/20 14:16:20;;;;;;;28.35;26.02;;;;;;;;;;5015553;28;20190;-79
2022/01/20 14:18:56;;;;;;;29.50;27.52;;;;;;;;;;5015569;28;20549;-79
2022/01/20 14:21:23;;;;;;;31.20;28.65;;;;;;;;;;4999105;28;20221;-79
2022/01/20 14:23:51;;;;;;;31.60;28.88;;;;;;;;;;5015515;28;20207;-79
2022/01/20 14:26:27;;;;;;;31.63;29.42;;;;;;;;;;5014165;28;20198;-80
2022/01/20 14:28:54;;;;;;;31.55;28.98;;;;;;;;;;5015142;28;20699;-80
2022/01/20 14:31:23;;;;;;;32.13;29.90;;;;;;;;;;5015289;28;20572;-79
2022/01/20 14:33:50;;;;;;;31.77;29.77;;;;;;;;;;5015053;28;20190;-79
2022/01/20 14:36:18;;;;;;;33.17;30.55;;;;;;;;;;5015080;28;20268;-80
2022/01/20 14:38:46;;;;;;;31.27;28.92;;;;;;;;;;5014951;28;20190;-79
2022/01/20 14:41:13;;;;;;;31.48;29.52;;;;;;;;;;5014696;28;20692;-80
2022/01/20 14:43:41;;;;;;;31.33;28.73;;;;;;;;;;5014580;28;20255;-80
2022/01/20 14:46:08;;;;;;;29.67;27.98;;;;;;;;;;5014821;28;20533;-80
2022/01/20 14:48:37;;;;;;;29.35;27.17;;;;;;;;;;5014987;28;20196;-82
2022/01/20 14:51:05;;;;;;;30.02;26.90;;;;;;;;;;5014768;28;20241;-83
2022/01/20 14:53:32;;;;;;;27.50;25.65;;;;;;;;;;5015015;28;20558;-79
2022/01/20 14:56:00;;;;;;;24.80;23.27;;;;;;;;;;5014636;28;20190;-78
2022/01/20 14:58:29;;;;;;;23.95;22.23;;;;;;;;;;5014614;28;20278;-79
2022/01/20 15:00:56;;;;;;;22.20;21.00;;;;;;;;;;5014710;28;20235;-80
2022/01/20 15:03:24;;;;;;;21.70;19.80;;;;;;;;;;5014280;28;20680;-80
2022/01/20 15:05:52;;;;;;;21.45;19.83;;;;;;;;;;5014335;28;20194;-79
2022/01/20 15:08:22;;;;;;;20.85;19.55;;;;;;;;;;5014602;28;20202;-81
2022/01/20 15:10:50;;;;;;;23.85;21.98;;;;;;;;;;5014181;28;20221;-82
2022/01/20 15:13:17;;;;;;;23.88;22.08;;;;;;;;;;5014653;28;20222;-82
2022/01/20 15:15:44;;;;;;;22.85;21.27;;;;;;;;;;5014477;28;20194;-82
2022/01/20 15:18:12;;;;;;;23.48;21.67;;;;;;;;;;5014181;28;20206;-79
2022/01/20 15:20:39;;;;;;;22.45;20.50;;;;;;;;;;5015300;28;20425;-79
2022/01/20 15:23:08;;;;;;;21.98;20.50;;;;;;;;;;5014002;28;20225;-79